Time;durP1;ratioP1;P1;durP2;ratioP2;P2;SDS_P1;SDS_P2;PMS_P1;PMS_P2;Temp;Humidity;BMP_temperature;BMP_pressure;BME280_temperature;BME280_humidity;BME280_pressure;Samples;Min_cycle;Max_cycle;Signal;HPM_P1;HPM_P2
2023/07/09 00:01:05;;;;;;;22.52;20.25;;;22.60;1.00;;;;;;5030381;28;20052;-58
2023/07/09 00:03:30;;;;;;;23.38;21.00;;;22.60;1.00;;;;;;5030179;28;20045;-57
2023/07/09 00:05:56;;;;;;;20.67;18.77;;;22.60;1.00;;;;;;5030293;28;20195;-57
2023/07/09 00:08:30;;;;;;;21.90;19.90;;;22.60;1.00;;;;;;5029846;28;20043;-57
2023/07/09 00:10:57;;;;;;;22.95;20.67;;;22.50;1.00;;;;;;5029857;28;20064;-57
2023/07/09 00:13:27;;;;;;;21.27;19.20;;;22.40;1.00;;;;;;5029870;28;20045;-57
2023/07/09 00:16:01;;;;;;;19.98;17.95;;;22.50;1.00;;;;;;5030314;28;20477;-57
2023/07/09 00:18:26;;;;;;;18.50;16.65;;;22.50;1.00;;;;;;5029815;28;20064;-57
2023/07/09 00:20:52;;;;;;;24.75;22.25;;;22.40;1.00;;;;;;5030312;28;20128;-58
2023/07/09 00:23:20;;;;;;;21.80;16.98;;;22.40;1.00;;;;;;5029818;28;20038;-58
2023/07/09 00:25:46;;;;;;;20.58;18.50;;;22.40;1.00;;;;;;5029847;28;20496;-57
2023/07/09 00:28:17;;;;;;;18.88;16.98;;;22.30;1.00;;;;;;5028379;28;20071;-57
2023/07/09 00:30:47;;;;;;;18.63;16.70;;;22.30;1.00;;;;;;5029980;28;20096;-57
2023/07/09 00:33:15;;;;;;;16.65;15.00;;;22.40;1.00;;;;;;5030009;28;20029;-57
2023/07/09 00:35:42;;;;;;;19.17;15.70;;;22.60;1.00;;;;;;5029965;28;20053;-58
2023/07/09 00:38:21;;;;;;;17.52;15.13;;;22.40;1.00;;;;;;5029551;28;20565;-57
2023/07/09 00:41:17;;;;;;;20.58;18.40;;;22.40;1.00;;;;;;5029773;28;20063;-58
2023/07/09 00:43:43;;;;;;;16.83;15.10;;;22.30;1.00;;;;;;5029704;28;20133;-57
2023/07/09 00:46:27;;;;;;;17.13;15.27;;;22.30;1.00;;;;;;5029762;28;20053;-57
2023/07/09 00:49:06;;;;;;;21.63;19.30;;;22.30;1.00;;;;;;5029817;28;20455;-57
2023/07/09 00:51:36;;;;;;;22.02;19.75;;;22.20;1.00;;;;;;5030145;28;20411;-58
2023/07/09 00:54:14;;;;;;;30.13;27.52;;;22.00;1.00;;;;;;5029876;28;20075;-57
2023/07/09 00:56:45;;;;;;;36.63;33.63;;;21.90;1.00;;;;;;5033158;28;20049;-57
2023/07/09 00:59:15;;;;;;;39.85;36.72;;;21.50;11.70;;;;;;5033540;28;20152;-57
2023/07/09 01:01:41;;;;;;;42.88;39.22;;;21.60;26.90;;;;;;5033534;28;20069;-57
2023/07/09 01:04:09;;;;;;;40.72;37.55;;;21.70;46.40;;;;;;5033543;28;20634;-57
2023/07/09 01:06:48;;;;;;;40.28;36.65;;;21.50;59.00;;;;;;5033634;28;20037;-57
2023/07/09 01:09:14;;;;;;;39.38;35.72;;;21.40;78.60;;;;;;5033623;28;20529;-57
2023/07/09 01:11:40;;;;;;;35.55;32.35;;;21.40;91.20;;;;;;5033988;28;20052;-57
2023/07/09 01:14:08;;;;;;;32.83;29.90;;;21.40;90.60;;;;;;5033604;28;20491;-58
2023/07/09 01:16:38;;;;;;;33.65;30.60;;;21.60;85.50;;;;;;5033433;28;20099;-57
2023/07/09 01:19:05;;;;;;;32.70;29.65;;;21.40;78.10;;;;;;5033221;28;20167;-57
2023/07/09 01:21:32;;;;;;;31.48;28.70;;;21.60;66.00;;;;;;5033310;28;20107;-57
2023/07/09 01:23:58;;;;;;;34.10;30.90;;;21.60;56.80;;;;;;5033002;28;20040;-57
2023/07/09 01:26:26;;;;;;;35.08;31.85;;;21.60;56.50;;;;;;5033095;28;20045;-57
2023/07/09 01:28:56;;;;;;;34.58;31.50;;;21.50;60.30;;;;;;5064743;28;20043;-57
2023/07/09 01:31:23;;;;;;;36.30;33.30;;;21.50;66.60;;;;;;5033366;28;20557;-57
2023/07/09 01:33:49;;;;;;;35.78;32.83;;;21.40;79.60;;;;;;5031608;28;20045;-57
2023/07/09 01:36:23;;;;;;;37.33;34.25;;;21.40;90.90;;;;;;5032952;28;20431;-57
2023/07/09 01:38:50;;;;;;;39.63;36.35;;;21.30;97.70;;;;;;5032606;28;20629;-57
2023/07/09 01:41:16;;;;;;;36.58;33.47;;;21.20;99.90;;;;;;5032802;28;20033;-57
2023/07/09 01:43:43;;;;;;;40.63;37.13;;;21.20;99.90;;;;;;5032570;28;20049;-57
2023/07/09 01:46:09;;;;;;;40.28;37.05;;;21.10;99.90;;;;;;5032888;28;20423;-57
2023/07/09 01:48:40;;;;;;;43.00;39.50;;;21.10;99.90;;;;;;5032475;28;20025;-57
2023/07/09 01:51:18;;;;;;;44.75;41.05;;;21.10;99.90;;;;;;5032415;28;20476;-57
2023/07/09 01:53:44;;;;;;;56.38;51.85;;;21.00;99.90;;;;;;5032314;28;20399;-57
2023/07/09 01:56:10;;;;;;;56.88;52.17;;;21.00;99.90;;;;;;5064763;28;20103;-57
2023/07/09 01:58:36;;;;;;;55.30;50.88;;;20.80;99.90;;;;;;5032375;28;20077;-57
2023/07/09 02:01:02;;;;;;;57.05;52.33;;;20.60;99.90;;;;;;5032438;28;20514;-57
2023/07/09 02:03:28;;;;;;;54.65;50.28;;;20.70;99.90;;;;;;5032342;28;20121;-57
2023/07/09 02:05:54;;;;;;;54.53;49.55;;;20.60;99.90;;;;;;5032128;28;20033;-57
2023/07/09 02:08:20;;;;;;;57.40;52.58;;;20.50;99.90;;;;;;5032249;28;20048;-57
2023/07/09 02:10:48;;;;;;;57.35;52.35;;;20.50;99.90;;;;;;5032109;28;20423;-57
2023/07/09 02:13:14;;;;;;;55.35;50.95;;;20.50;99.90;;;;;;5032287;28;20091;-57
2023/07/09 02:15:43;;;;;;;55.67;50.72;;;20.40;99.90;;;;;;5032311;28;20045;-57
2023/07/09 02:18:09;;;;;;;60.50;55.17;;;20.40;99.90;;;;;;5032255;28;20073;-57
2023/07/09 02:20:35;;;;;;;58.05;53.42;;;20.00;99.90;;;;;;5031848;28;20049;-57
2023/07/09 02:23:00;;;;;;;57.83;53.00;;;20.40;99.90;;;;;;5031749;28;20042;-57
2023/07/09 02:25:26;;;;;;;56.90;52.08;;;20.30;99.90;;;;;;5031960;28;20090;-57
2023/07/09 02:27:51;;;;;;;56.13;51.42;;;20.20;1.00;;;;;;5031790;28;20033;-57
2023/07/09 02:30:17;;;;;;;55.90;51.33;;;20.10;1.00;;;;;;5031900;28;20116;-57
2023/07/09 02:32:42;;;;;;;57.50;52.38;;;20.10;1.00;;;;;;5031913;28;20037;-57
2023/07/09 02:35:08;;;;;;;58.35;53.40;;;20.10;1.00;;;;;;5031698;28;20040;-57
2023/07/09 02:37:34;;;;;;;54.55;50.05;;;20.10;1.00;;;;;;5031547;28;20034;-57
2023/07/09 02:39:59;;;;;;;53.25;48.85;;;20.00;1.00;;;;;;5031723;28;20037;-58
2023/07/09 02:42:25;;;;;;;55.70;51.25;;;20.10;1.00;;;;;;5031436;28;20058;-57
2023/07/09 02:44:51;;;;;;;56.08;51.15;;;20.10;1.00;;;;;;5031640;28;20393;-58
2023/07/09 02:47:18;;;;;;;56.15;51.25;;;20.00;1.00;;;;;;5031632;28;20041;-57
2023/07/09 02:49:43;;;;;;;55.85;51.03;;;20.00;1.00;;;;;;5031414;28;20083;-58
2023/07/09 02:52:09;;;;;;;55.13;50.30;;;20.00;1.00;;;;;;5031390;28;20614;-58
2023/07/09 02:54:35;;;;;;;53.95;49.22;;;20.00;1.00;;;;;;5031248;28;20037;-57
2023/07/09 02:57:01;;;;;;;53.28;48.20;;;19.90;1.00;;;;;;5031468;28;20048;-57
2023/07/09 02:59:29;;;;;;;53.17;48.67;;;20.00;1.00;;;;;;5031312;28;20044;-57
2023/07/09 03:01:55;;;;;;;52.80;48.13;;;19.90;1.00;;;;;;5031220;28;20069;-57
2023/07/09 03:04:20;;;;;;;53.67;48.78;;;19.90;13.80;;;;;;5031137;28;20094;-57
2023/07/09 03:06:46;;;;;;;52.03;47.63;;;19.90;55.20;;;;;;5028669;28;20033;-57
2023/07/09 03:09:12;;;;;;;50.65;46.50;;;19.90;79.70;;;;;;5021176;28;20055;-57
2023/07/09 03:11:38;;;;;;;52.28;47.97;;;19.90;91.60;;;;;;5014977;28;20088;-58
2023/07/09 03:14:04;;;;;;;51.38;46.63;;;19.90;99.40;;;;;;5012916;28;20510;-57
2023/07/09 03:16:32;;;;;;;52.00;47.28;;;19.90;99.90;;;;;;5031557;28;20128;-57
2023/07/09 03:18:57;;;;;;;51.38;46.72;;;20.00;99.90;;;;;;5030419;28;20383;-57
2023/07/09 03:21:25;;;;;;;52.85;48.25;;;19.80;99.90;;;;;;5030796;28;20045;-57
2023/07/09 03:23:51;;;;;;;50.83;46.53;;;19.80;99.90;;;;;;5030994;28;20049;-57
2023/07/09 03:26:16;;;;;;;50.60;46.08;;;19.70;99.90;;;;;;5030430;28;20499;-57
2023/07/09 03:28:42;;;;;;;49.85;45.53;;;19.80;99.90;;;;;;5030838;28;20839;-58
2023/07/09 03:31:08;;;;;;;50.22;45.83;;;19.70;99.90;;;;;;5030788;28;20041;-57
2023/07/09 03:33:34;;;;;;;49.72;45.28;;;19.80;99.90;;;;;;5030721;28;20041;-58
2023/07/09 03:35:59;;;;;;;51.10;46.47;;;19.70;99.90;;;;;;5030501;28;20051;-57
2023/07/09 03:38:25;;;;;;;50.65;46.15;;;19.70;99.90;;;;;;5030863;28;20037;-57
2023/07/09 03:40:54;;;;;;;49.67;45.13;;;19.70;99.90;;;;;;5030534;28;20098;-58
2023/07/09 03:43:21;;;;;;;51.33;46.58;;;19.70;99.90;;;;;;5030017;28;20064;-57
2023/07/09 03:45:47;;;;;;;50.35;45.55;;;19.70;99.90;;;;;;5045040;28;20034;-57
2023/07/09 03:48:14;;;;;;;50.00;45.10;;;19.70;99.90;;;;;;5029576;28;20037;-57
2023/07/09 03:50:41;;;;;;;48.00;43.70;;;19.80;99.90;;;;;;5029424;28;20086;-57
2023/07/09 03:53:07;;;;;;;47.38;43.20;;;19.80;99.90;;;;;;5029862;28;20052;-57
2023/07/09 03:55:33;;;;;;;46.38;42.38;;;20.70;99.90;;;;;;5044825;28;20049;-57
2023/07/09 03:57:58;;;;;;;46.70;42.55;;;19.90;99.90;;;;;;5029722;28;20389;-57
2023/07/09 04:00:24;;;;;;;47.38;43.05;;;20.10;99.90;;;;;;5029573;28;20037;-57
2023/07/09 04:02:51;;;;;;;47.55;43.45;;;19.90;99.90;;;;;;5029650;28;20119;-57
2023/07/09 04:05:17;;;;;;;48.05;43.60;;;20.00;99.90;;;;;;5029345;28;20053;-57
2023/07/09 04:07:43;;;;;;;47.55;43.17;;;20.00;99.90;;;;;;5029616;28;20458;-57
2023/07/09 04:10:09;;;;;;;46.55;42.42;;;20.00;99.90;;;;;;5023774;28;20038;-57
2023/07/09 04:12:36;;;;;;;47.75;43.35;;;20.00;99.90;;;;;;5009677;28;20053;-57
2023/07/09 04:15:05;;;;;;;47.35;43.15;;;20.00;99.90;;;;;;5016346;28;20388;-57
2023/07/09 04:17:31;;;;;;;46.55;42.42;;;20.00;1.00;;;;;;5029283;28;20073;-57
2023/07/09 04:19:57;;;;;;;47.35;43.00;;;20.00;1.00;;;;;;5029132;28;20435;-58
2023/07/09 04:22:22;;;;;;;46.33;42.33;;;20.00;1.00;;;;;;5029249;28;20052;-57
2023/07/09 04:24:49;;;;;;;45.85;41.70;;;20.00;1.00;;;;;;5027794;28;20041;-57
2023/07/09 04:27:15;;;;;;;44.30;40.15;;;20.10;1.00;;;;;;5029126;28;20045;-57
2023/07/09 04:29:41;;;;;;;43.90;39.88;;;20.30;1.00;;;;;;5026559;28;20038;-57
2023/07/09 04:32:12;;;;;;;43.30;39.50;;;20.30;1.00;;;;;;5044272;28;20034;-57
2023/07/09 04:34:39;;;;;;;40.92;37.55;;;20.50;1.00;;;;;;5028904;28;20392;-57
2023/07/09 04:37:09;;;;;;;41.70;38.20;;;20.60;1.00;;;;;;5028890;28;20052;-57
2023/07/09 04:39:34;;;;;;;45.60;41.38;;;20.80;1.00;;;;;;5028872;28;20045;-57
2023/07/09 04:42:00;;;;;;;45.35;41.45;;;20.80;99.90;;;;;;5028974;28;20090;-57
2023/07/09 04:44:25;;;;;;;45.38;41.45;;;20.90;1.00;;;;;;4993193;28;1041862;-57
2023/07/09 04:46:51;;;;;;;46.08;42.05;;;20.90;1.00;;;;;;5029812;28;20120;-57
2023/07/09 04:49:17;;;;;;;46.95;42.47;;;20.90;1.00;;;;;;5029655;28;20081;-57
2023/07/09 04:51:42;;;;;;;45.38;41.45;;;21.10;1.00;;;;;;5029815;28;20140;-57
2023/07/09 04:54:08;;;;;;;45.00;41.00;;;21.00;1.00;;;;;;5029579;28;20075;-57
2023/07/09 04:56:34;;;;;;;43.97;40.30;;;21.00;1.00;;;;;;5029742;28;20087;-57
2023/07/09 04:58:59;;;;;;;45.03;41.03;;;21.10;1.00;;;;;;5029782;28;20091;-58
2023/07/09 05:01:25;;;;;;;42.75;38.92;;;21.20;4.40;;;;;;5029686;28;20742;-57
2023/07/09 05:03:50;;;;;;;42.95;39.05;;;21.10;16.80;;;;;;5029466;28;20040;-58
2023/07/09 05:06:16;;;;;;;42.05;38.05;;;21.20;31.30;;;;;;5029965;28;20037;-58
2023/07/09 05:08:42;;;;;;;43.38;39.13;;;21.20;27.60;;;;;;5030006;28;20049;-58
2023/07/09 05:11:08;;;;;;;42.40;38.80;;;21.30;16.90;;;;;;5029543;28;20454;-57
2023/07/09 05:13:34;;;;;;;45.55;41.53;;;21.40;10.10;;;;;;5029853;28;20567;-57
2023/07/09 05:16:00;;;;;;;45.88;41.45;;;21.50;14.10;;;;;;5029835;28;20203;-57
2023/07/09 05:18:25;;;;;;;45.45;41.25;;;21.50;32.20;;;;;;5029588;28;20049;-57
2023/07/09 05:20:51;;;;;;;44.45;40.28;;;21.60;59.80;;;;;;5029389;28;20446;-57
2023/07/09 05:23:16;;;;;;;44.78;40.63;;;21.60;87.70;;;;;;5029575;28;20053;-57
2023/07/09 05:25:42;;;;;;;42.95;39.15;;;21.60;97.30;;;;;;5029283;28;20052;-57
2023/07/09 05:28:08;;;;;;;43.65;39.65;;;21.60;96.60;;;;;;5029418;28;20045;-57
2023/07/09 05:30:34;;;;;;;45.67;41.15;;;21.60;99.90;;;;;;5029437;28;20040;-58
2023/07/09 05:32:59;;;;;;;44.30;40.45;;;21.60;99.90;;;;;;5029282;28;20049;-57
2023/07/09 05:35:26;;;;;;;45.25;40.65;;;21.60;99.90;;;;;;5029220;28;20034;-58
2023/07/09 05:37:55;;;;;;;44.45;40.45;;;21.70;99.90;;;;;;5029423;28;20526;-58
2023/07/09 05:40:21;;;;;;;43.85;39.90;;;21.80;99.90;;;;;;5029161;28;20036;-58
2023/07/09 05:42:48;;;;;;;44.42;40.60;;;21.80;99.90;;;;;;5032240;28;20120;-58
2023/07/09 05:45:14;;;;;;;44.88;40.78;;;22.00;99.90;;;;;;5032705;28;20037;-58
2023/07/09 05:47:40;;;;;;;45.92;41.40;;;22.10;99.90;;;;;;5033093;28;20060;-58
2023/07/09 05:50:06;;;;;;;45.75;41.30;;;22.20;99.90;;;;;;5032791;28;20029;-58
2023/07/09 05:52:32;;;;;;;45.70;41.50;;;22.40;99.90;;;;;;5032610;28;20400;-58
2023/07/09 05:54:59;;;;;;;45.42;41.13;;;22.50;99.90;;;;;;5032567;28;20071;-58
2023/07/09 05:57:25;;;;;;;42.85;39.05;;;22.70;99.90;;;;;;5032517;28;20404;-58
2023/07/09 05:59:51;;;;;;;43.55;39.38;;;22.80;99.90;;;;;;5032684;28;20479;-58
2023/07/09 06:02:19;;;;;;;45.60;41.25;;;22.80;99.90;;;;;;5032201;28;20045;-58
2023/07/09 06:04:45;;;;;;;45.95;41.55;;;22.70;1.00;;;;;;5032488;28;20450;-58
2023/07/09 06:07:12;;;;;;;45.95;41.50;;;23.00;1.00;;;;;;5032072;28;20060;-58
2023/07/09 06:09:38;;;;;;;46.28;41.45;;;23.00;1.00;;;;;;5032396;28;20080;-58
2023/07/09 06:12:05;;;;;;;46.53;42.33;;;23.10;1.00;;;;;;5032201;28;20407;-58
2023/07/09 06:14:31;;;;;;;48.63;43.30;;;23.20;1.00;;;;;;5032307;28;20060;-58
2023/07/09 06:16:57;;;;;;;47.10;42.10;;;23.30;6.60;;;;;;5030551;28;20527;-58
2023/07/09 06:19:23;;;;;;;48.90;42.67;;;23.30;69.50;;;;;;5032374;28;20077;-58
2023/07/09 06:21:48;;;;;;;45.70;41.40;;;23.50;99.90;;;;;;5031933;28;20125;-57
2023/07/09 06:24:14;;;;;;;47.78;43.15;;;23.70;99.90;;;;;;5032123;28;20041;-58
2023/07/09 06:26:39;;;;;;;45.67;41.13;;;23.80;99.90;;;;;;5034712;28;20062;-57
2023/07/09 06:29:05;;;;;;;42.30;38.38;;;24.10;1.00;;;;;;5045321;28;20041;-57
2023/07/09 06:31:31;;;;;;;44.38;39.88;;;24.20;99.90;;;;;;5023070;28;20049;-58
2023/07/09 06:33:56;;;;;;;44.88;40.42;;;24.30;99.90;;;;;;5025067;28;20041;-58
2023/07/09 06:36:22;;;;;;;41.92;37.80;;;24.40;99.90;;;;;;5031824;28;20415;-58
2023/07/09 06:38:48;;;;;;;38.65;35.15;;;24.40;1.00;;;;;;5031910;28;20179;-58
2023/07/09 06:41:14;;;;;;;44.22;40.13;;;24.40;1.00;;;;;;5031395;28;20041;-58
2023/07/09 06:43:40;;;;;;;46.25;37.72;;;24.40;99.90;;;;;;5031597;28;20080;-58
2023/07/09 06:46:09;;;;;;;42.55;38.15;;;24.40;99.90;;;;;;5031379;28;20419;-57
2023/07/09 06:48:35;;;;;;;43.72;39.22;;;24.40;99.90;;;;;;5047051;28;20514;-57
2023/07/09 06:51:01;;;;;;;44.45;40.28;;;24.30;99.90;;;;;;5031469;28;20037;-58
2023/07/09 06:53:28;;;;;;;44.92;40.72;;;24.30;99.90;;;;;;5030674;28;20344;-59
2023/07/09 06:55:58;;;;;;;48.22;43.42;;;24.20;99.90;;;;;;5046650;28;20040;-58
2023/07/09 06:58:25;;;;;;;46.67;42.30;;;24.30;99.90;;;;;;5031482;28;20048;-58
2023/07/09 07:00:51;;;;;;;47.88;43.22;;;24.30;99.90;;;;;;5031192;28;20049;-58
2023/07/09 07:03:17;;;;;;;49.50;44.70;;;24.40;99.90;;;;;;5031691;28;20037;-58
2023/07/09 07:05:48;;;;;;;47.90;43.58;;;24.40;99.90;;;;;;5030804;28;20037;-58
2023/07/09 07:08:15;;;;;;;48.08;43.30;;;24.40;99.90;;;;;;5021139;28;20037;-59
2023/07/09 07:10:41;;;;;;;44.88;40.30;;;24.40;1.00;;;;;;5020845;28;20030;-58
2023/07/09 07:13:07;;;;;;;44.35;40.13;;;24.20;99.90;;;;;;5031243;28;20418;-58
2023/07/09 07:15:32;;;;;;;46.95;42.35;;;24.30;99.90;;;;;;5031187;28;20033;-58
2023/07/09 07:17:58;;;;;;;47.85;43.08;;;24.20;99.90;;;;;;5031415;28;20373;-58
2023/07/09 07:20:23;;;;;;;45.78;41.72;;;24.10;99.90;;;;;;5031294;28;20044;-58
2023/07/09 07:22:49;;;;;;;39.80;36.20;;;24.20;99.90;;;;;;5031034;28;20128;-58
2023/07/09 07:25:15;;;;;;;41.58;37.42;;;24.20;99.90;;;;;;5030971;28;20041;-58
2023/07/09 07:27:41;;;;;;;36.53;33.15;;;24.20;99.90;;;;;;5030679;28;20048;-58
2023/07/09 07:30:08;;;;;;;36.33;32.58;;;24.30;19.40;;;;;;5030818;28;20411;-58
2023/07/09 07:32:36;;;;;;;38.67;35.08;;;24.30;1.00;;;;;;5030895;28;20548;-58
2023/07/09 07:35:01;;;;;;;34.38;31.27;;;24.20;1.00;;;;;;5030923;28;20110;-58
2023/07/09 07:37:27;;;;;;;37.85;34.15;;;24.20;1.00;;;;;;5045678;28;20053;-58
2023/07/09 07:39:53;;;;;;;39.65;36.05;;;24.20;1.00;;;;;;5030904;28;20037;-58
2023/07/09 07:42:19;;;;;;;41.75;37.85;;;24.20;1.00;;;;;;5030158;28;20041;-59
2023/07/09 07:44:45;;;;;;;43.45;38.75;;;24.30;1.00;;;;;;5030431;28;20458;-58
2023/07/09 07:47:11;;;;;;;42.08;37.00;;;24.20;1.00;;;;;;5030491;28;20118;-58
2023/07/09 07:49:37;;;;;;;39.50;35.88;;;24.00;1.00;;;;;;5030647;28;20490;-58
2023/07/09 07:52:03;;;;;;;41.55;37.75;;;23.90;1.00;;;;;;5030397;28;20037;-58
2023/07/09 07:54:31;;;;;;;42.42;38.53;;;23.80;1.00;;;;;;5030310;28;20124;-58
2023/07/09 07:56:57;;;;;;;42.22;38.15;;;23.90;1.00;;;;;;5030251;28;20678;-59
2023/07/09 07:59:23;;;;;;;38.20;34.85;;;24.10;1.00;;;;;;5030388;28;20076;-59
2023/07/09 08:01:49;;;;;;;39.15;35.40;;;24.00;1.00;;;;;;5030296;28;20135;-58
2023/07/09 08:04:15;;;;;;;38.35;34.90;;;24.10;1.00;;;;;;5030275;28;20582;-58
2023/07/09 08:06:41;;;;;;;39.70;35.80;;;23.90;1.00;;;;;;5030140;28;20504;-58
2023/07/09 08:09:06;;;;;;;36.40;32.92;;;23.80;1.00;;;;;;5012544;28;20503;-58
2023/07/09 08:11:32;;;;;;;34.90;31.40;;;23.90;1.00;;;;;;5029860;28;20446;-58
2023/07/09 08:13:58;;;;;;;32.00;28.85;;;23.90;99.90;;;;;;5028761;28;20818;-58
2023/07/09 08:16:24;;;;;;;29.25;26.25;;;24.00;99.90;;;;;;5030085;28;20496;-58
2023/07/09 08:18:51;;;;;;;30.38;27.48;;;24.30;99.90;;;;;;5045500;28;20045;-58
2023/07/09 08:21:17;;;;;;;23.77;21.58;;;23.70;99.90;;;;;;5029835;28;20033;-59
2023/07/09 08:23:43;;;;;;;20.02;17.50;;;24.20;99.90;;;;;;5030077;28;20041;-59
2023/07/09 08:26:09;;;;;;;18.67;16.67;;;24.20;99.90;;;;;;5029915;28;20099;-58
2023/07/09 08:28:35;;;;;;;17.70;15.68;;;24.40;82.90;;;;;;5029914;28;20091;-58
2023/07/09 08:31:00;;;;;;;19.35;14.50;;;24.50;43.50;;;;;;5029775;28;20091;-59
2023/07/09 08:33:26;;;;;;;17.50;15.43;;;24.50;9.70;;;;;;5030112;28;20691;-58
2023/07/09 08:35:53;;;;;;;19.70;17.88;;;24.50;1.00;;;;;;5030044;28;20048;-58
2023/07/09 08:38:20;;;;;;;22.60;20.23;;;24.80;1.00;;;;;;5029695;28;20081;-59
2023/07/09 08:41:02;;;;;;;20.92;19.15;;;24.70;10.90;;;;;;5029821;28;20073;-58
2023/07/09 08:43:50;;;;;;;21.85;19.85;;;24.90;1.00;;;;;;5029723;28;20049;-58
2023/07/09 08:46:22;;;;;;;22.33;20.00;;;24.90;1.00;;;;;;5029787;28;20088;-58
2023/07/09 08:48:49;;;;;;;23.70;21.50;;;24.90;1.00;;;;;;5029577;28;20041;-59
2023/07/09 08:51:39;;;;;;;27.60;25.30;;;24.90;6.90;;;;;;5029568;28;20052;-59
2023/07/09 08:54:15;;;;;;;30.35;27.45;;;24.80;33.90;;;;;;5028267;28;20083;-59
2023/07/09 08:56:41;;;;;;;28.20;25.73;;;24.80;84.70;;;;;;5029655;28;20041;-58
2023/07/09 08:59:12;;;;;;;27.95;25.55;;;25.00;93.70;;;;;;5029909;28;20048;-59
2023/07/09 09:01:46;;;;;;;29.05;26.27;;;25.00;60.00;;;;;;5029426;28;20056;-58
2023/07/09 09:04:29;;;;;;;32.07;29.30;;;25.00;68.90;;;;;;5029699;28;20616;-58
2023/07/09 09:07:10;;;;;;;27.42;25.00;;;25.00;92.30;;;;;;5029296;28;20033;-59
2023/07/09 09:09:44;;;;;;;28.38;25.90;;;25.10;93.00;;;;;;5028671;28;20037;-58
2023/07/09 09:12:27;;;;;;;31.00;28.17;;;25.00;76.50;;;;;;5017728;28;20075;-59
2023/07/09 09:15:20;;;;;;;33.45;30.73;;;25.10;91.70;;;;;;5029616;28;20052;-59
2023/07/09 09:17:52;;;;;;;36.83;33.70;;;25.10;99.90;;;;;;5031704;28;20204;-59
2023/07/09 09:20:23;;;;;;;33.60;30.70;;;25.30;99.90;;;;;;5033181;28;20052;-59
2023/07/09 09:23:07;;;;;;;31.10;28.30;;;25.40;99.90;;;;;;5033182;28;20072;-58
2023/07/09 09:25:37;;;;;;;31.10;28.27;;;25.60;99.90;;;;;;5033602;28;20029;-59
2023/07/09 09:28:03;;;;;;;30.95;28.13;;;25.60;87.30;;;;;;5033340;28;20048;-59
2023/07/09 09:30:29;;;;;;;33.22;30.13;;;25.70;84.80;;;;;;5033764;28;20033;-59
2023/07/09 09:32:57;;;;;;;29.23;26.52;;;25.70;81.80;;;;;;5048528;28;20407;-59
2023/07/09 09:35:34;;;;;;;28.73;26.25;;;25.80;73.00;;;;;;5033187;28;20522;-59
2023/07/09 09:38:01;;;;;;;29.50;26.95;;;26.00;71.30;;;;;;5032897;28;20044;-59
2023/07/09 09:40:29;;;;;;;27.20;24.88;;;26.10;71.30;;;;;;5048343;28;20037;-58
2023/07/09 09:42:56;;;;;;;26.48;24.27;;;26.10;37.50;;;;;;5032600;28;20439;-59
2023/07/09 09:45:34;;;;;;;25.35;23.23;;;26.20;28.60;;;;;;5032990;28;20041;-59
2023/07/09 09:48:05;;;;;;;28.65;25.98;;;26.30;16.80;;;;;;5032650;28;20037;-59
2023/07/09 09:50:33;;;;;;;25.45;23.08;;;26.40;25.30;;;;;;5032881;28;20385;-59
2023/07/09 09:53:01;;;;;;;28.67;26.25;;;26.50;20.70;;;;;;5032501;28;20060;-59
2023/07/09 09:55:30;;;;;;;27.42;24.83;;;26.50;14.90;;;;;;5032762;28;20122;-59
2023/07/09 09:57:56;;;;;;;28.38;25.90;;;26.30;1.80;;;;;;5032449;28;20029;-58
2023/07/09 10:00:25;;;;;;;25.65;23.23;;;26.30;9.00;;;;;;5031271;28;20041;-59
2023/07/09 10:02:50;;;;;;;25.27;23.17;;;26.30;16.20;;;;;;5032276;28;20125;-59
2023/07/09 10:05:19;;;;;;;24.95;22.75;;;26.40;23.40;;;;;;5032773;28;20626;-59
2023/07/09 10:08:09;;;;;;;24.00;22.00;;;26.60;11.70;;;;;;5032429;28;20104;-59
2023/07/09 10:10:35;;;;;;;23.48;21.58;;;26.60;1.00;;;;;;5023520;28;20034;-59
2023/07/09 10:13:17;;;;;;;23.38;21.38;;;26.60;1.00;;;;;;5024366;28;20629;-59
2023/07/09 10:16:00;;;;;;;25.75;23.48;;;26.70;1.00;;;;;;5032774;28;20034;-59
2023/07/09 10:19:05;;;;;;;24.35;22.08;;;26.80;2.50;;;;;;5032578;28;20563;-59
2023/07/09 10:21:47;;;;;;;22.33;20.42;;;26.90;1.00;;;;;;5032120;28;20049;-59
2023/07/09 10:24:24;;;;;;;23.98;22.02;;;27.00;1.00;;;;;;5036393;28;20029;-59
2023/07/09 10:27:14;;;;;;;23.02;20.70;;;27.00;1.00;;;;;;5021536;28;20124;-59
2023/07/09 10:30:09;;;;;;;21.63;19.92;;;27.00;1.00;;;;;;5032052;28;20041;-59
2023/07/09 10:32:55;;;;;;;21.42;19.73;;;27.10;1.00;;;;;;5019506;28;20045;-59
2023/07/09 10:35:31;;;;;;;22.60;20.77;;;27.20;1.00;;;;;;5047296;28;20742;-59
2023/07/09 10:38:11;;;;;;;21.17;19.58;;;27.10;1.00;;;;;;5031704;28;20041;-59
2023/07/09 10:40:41;;;;;;;23.83;21.92;;;27.10;1.00;;;;;;5031957;28;20581;-59
2023/07/09 10:43:18;;;;;;;26.42;24.42;;;27.20;1.00;;;;;;5031337;28;20187;-59
2023/07/09 10:45:52;;;;;;;32.30;29.95;;;27.30;1.00;;;;;;5031833;28;20056;-59
2023/07/09 10:48:38;;;;;;;42.95;39.55;;;27.40;1.00;;;;;;5031451;28;20034;-59
2023/07/09 10:51:10;;;;;;;43.70;40.20;;;27.60;1.00;;;;;;5032094;28;20163;-59
2023/07/09 10:53:44;;;;;;;41.88;38.75;;;27.60;1.00;;;;;;5030200;28;20056;-58
2023/07/09 10:56:21;;;;;;;29.77;27.60;;;27.50;1.00;;;;;;5031426;28;20510;-59
2023/07/09 10:59:17;;;;;;;30.55;28.33;;;27.50;1.00;;;;;;5031063;28;20050;-58
2023/07/09 11:01:47;;;;;;;20.50;18.88;;;27.50;1.00;;;;;;5029918;28;20045;-59
2023/07/09 11:04:25;;;;;;;17.90;16.25;;;27.30;1.00;;;;;;5031122;28;20029;-59
2023/07/09 11:06:55;;;;;;;10.15;9.20;;;27.40;1.00;;;;;;5031195;28;20049;-59
2023/07/09 11:09:46;;;;;;;7.53;6.38;;;27.30;1.00;;;;;;5062960;28;20120;-59
2023/07/09 11:12:24;;;;;;;8.48;7.57;;;27.20;1.00;;;;;;5013149;28;20056;-59
2023/07/09 11:14:59;;;;;;;5.65;4.80;;;27.30;1.00;;;;;;5031375;28;20044;-58
2023/07/09 11:17:27;;;;;;;4.97;4.47;;;27.40;1.00;;;;;;5029771;28;20081;-59
2023/07/09 11:19:59;;;;;;;17.40;16.02;;;27.50;1.00;;;;;;5030901;28;20566;-58
2023/07/09 11:22:38;;;;;;;8.23;7.18;;;27.50;1.00;;;;;;5030561;28;20057;-59
2023/07/09 11:25:10;;;;;;;7.65;6.93;;;27.70;1.00;;;;;;5031094;28;20041;-59
2023/07/09 11:27:49;;;;;;;8.20;6.45;;;27.60;1.00;;;;;;5030744;28;20029;-59
2023/07/09 11:30:23;;;;;;;5.75;4.15;;;27.60;1.00;;;;;;5030571;28;20041;-58
2023/07/09 11:32:56;;;;;;;5.80;4.05;;;27.60;1.00;;;;;;5030350;28;20080;-59
2023/07/09 11:35:25;;;;;;;5.25;3.60;;;27.60;1.00;;;;;;5030981;28;20045;-59
2023/07/09 11:37:52;;;;;;;7.30;3.63;;;27.70;1.00;;;;;;5030392;28;20095;-58
2023/07/09 11:40:19;;;;;;;13.00;4.60;;;27.70;1.00;;;;;;5030151;28;20108;-58
2023/07/09 11:42:59;;;;;;;9.32;4.80;;;27.70;1.00;;;;;;5030212;28;20345;-59
2023/07/09 11:45:30;;;;;;;9.40;5.70;;;27.60;1.00;;;;;;5030888;28;20079;-59
2023/07/09 11:48:22;;;;;;;5.95;3.90;;;27.60;1.00;;;;;;5017847;28;20025;-59
2023/07/09 11:50:50;;;;;;;6.88;4.45;;;27.50;1.00;;;;;;5030541;28;20052;-59
2023/07/09 11:53:53;;;;;;;6.85;4.53;;;27.50;1.00;;;;;;5030269;28;20033;-59
2023/07/09 11:56:20;;;;;;;6.47;4.70;;;27.50;1.00;;;;;;5029495;28;20046;-59
2023/07/09 11:58:55;;;;;;;8.15;4.88;;;27.30;1.00;;;;;;5030279;28;20041;-59
2023/07/09 12:01:30;;;;;;;7.20;5.55;;;27.10;1.00;;;;;;5030072;28;20041;-58
2023/07/09 12:03:57;;;;;;;5.18;4.53;;;27.00;1.00;;;;;;5030014;28;20112;-59
2023/07/09 12:06:27;;;;;;;6.40;3.95;;;27.00;1.00;;;;;;5028811;28;20053;-58
2023/07/09 12:08:54;;;;;;;5.97;3.92;;;27.00;1.00;;;;;;5030093;28;20041;-58
2023/07/09 12:11:30;;;;;;;6.15;3.90;;;27.00;1.00;;;;;;5015113;28;20085;-59
2023/07/09 12:14:10;;;;;;;7.30;3.90;;;26.80;1.00;;;;;;5023516;28;20510;-59
2023/07/09 12:16:40;;;;;;;11.93;4.70;;;26.90;1.00;;;;;;5030373;28;20037;-58
2023/07/09 12:19:05;;;;;;;5.47;3.97;;;26.90;1.00;;;;;;5030088;28;20037;-58
2023/07/09 12:21:35;;;;;;;6.70;3.83;;;27.00;1.00;;;;;;5030123;28;20041;-59
2023/07/09 12:24:02;;;;;;;7.32;4.20;;;26.90;1.00;;;;;;5029902;28;20518;-58
2023/07/09 12:26:31;;;;;;;9.15;4.10;;;26.80;1.00;;;;;;5030018;28;20077;-59
2023/07/09 12:28:58;;;;;;;8.07;4.20;;;26.80;1.00;;;;;;5028638;28;20521;-58
2023/07/09 12:31:29;;;;;;;7.07;4.75;;;26.80;1.00;;;;;;5029810;28;20033;-59
2023/07/09 12:33:57;;;;;;;9.48;5.13;;;26.50;1.00;;;;;;5029491;28;20573;-58
2023/07/09 12:36:27;;;;;;;8.77;5.70;;;26.50;1.00;;;;;;5030078;28;20064;-58
2023/07/09 12:38:56;;;;;;;7.80;6.18;;;26.50;1.00;;;;;;5029611;28;20042;-58
2023/07/09 12:41:37;;;;;;;9.45;7.65;;;26.30;1.00;;;;;;5029729;28;20360;-58
2023/07/09 12:44:04;;;;;;;11.88;8.93;;;26.10;1.00;;;;;;5029530;28;20585;-58